createdAt,value
2016-06-03T00:00:05.451Z,100
2016-06-03T00:00:15.451Z,100
2016-06-03T00:00:25.451Z,100
2016-06-03T00:00:35.435Z,100
2016-06-03T00:00:45.421Z,100
2016-06-03T00:00:55.421Z,100
2016-06-03T00:01:05.421Z,100
2016-06-03T00:01:15.421Z,100
2016-06-03T00:01:25.406Z,100
2016-06-03T00:01:35.406Z,100
2016-06-03T00:01:45.409Z,100
2016-06-03T00:01:55.393Z,100
2016-06-03T00:02:05.393Z,100
2016-06-03T00:02:15.393Z,100
2016-06-03T00:02:25.377Z,100
2016-06-03T00:02:35.377Z,100
2016-06-03T00:02:45.380Z,100
2016-06-03T00:02:55.365Z,100
2016-06-03T00:03:05.209Z,100
2016-06-03T00:03:15.365Z,100
2016-06-03T00:03:25.349Z,100
2016-06-03T00:03:35.349Z,100
2016-06-03T00:03:45.336Z,100
2016-06-03T00:03:55.336Z,100
2016-06-03T00:04:05.336Z,100
2016-06-03T00:04:15.336Z,100
2016-06-03T00:04:25.320Z,100
2016-06-03T00:04:35.320Z,100
2016-06-03T00:04:45.322Z,100
2016-06-03T00:04:55.306Z,100
2016-06-03T00:05:05.306Z,100
2016-06-03T00:05:15.306Z,100
2016-06-03T00:05:25.291Z,100
2016-06-03T00:05:35.291Z,100
2016-06-03T00:05:45.278Z,100
2016-06-03T00:05:55.294Z,100
2016-06-03T00:06:05.278Z,100
2016-06-03T00:06:15.278Z,100
2016-06-03T00:06:25.278Z,100
2016-06-03T00:06:35.262Z,100
2016-06-03T00:06:45.265Z,100
2016-06-03T00:06:55.265Z,100
2016-06-03T00:07:05.250Z,100
2016-06-03T00:07:15.094Z,100
2016-06-03T00:07:25.250Z,100
2016-06-03T00:07:35.234Z,100
2016-06-03T00:07:45.237Z,100
2016-06-03T00:07:55.237Z,100
2016-06-03T00:08:05.222Z,100
2016-06-03T00:08:15.222Z,100
2016-06-03T00:08:25.206Z,100
2016-06-03T00:08:35.206Z,100
2016-06-03T00:08:45.208Z,100
2016-06-03T00:08:55.192Z,100
2016-06-03T00:09:05.192Z,100
2016-06-03T00:09:15.192Z,100
2016-06-03T00:09:25.177Z,100
2016-06-03T00:09:35.208Z,100
2016-06-03T00:09:45.883Z,100
2016-06-03T00:09:55.164Z,100
2016-06-03T00:10:05.492Z,100
2016-06-03T00:10:15.164Z,100
2016-06-03T00:10:25.070Z,100
2016-06-03T00:10:35.164Z,100
2016-06-03T00:10:45.150Z,100
2016-06-03T00:10:55.135Z,100
2016-06-03T00:11:05.135Z,100
2016-06-03T00:11:15.135Z,100
2016-06-03T00:11:25.119Z,100
2016-06-03T00:11:35.119Z,100
2016-06-03T00:11:45.123Z,100
2016-06-03T00:11:55.108Z,100
2016-06-03T00:12:05.108Z,100
2016-06-03T00:12:15.108Z,100
2016-06-03T00:12:25.092Z,100
2016-06-03T00:12:34.936Z,100
2016-06-03T00:12:45.094Z,100
2016-06-03T00:12:55.078Z,100
2016-06-03T00:13:05.078Z,100
2016-06-03T00:13:15.078Z,100
2016-06-03T00:13:25.063Z,100
2016-06-03T00:13:35.063Z,100
2016-06-03T00:13:44.909Z,100
2016-06-03T00:13:55.066Z,100
2016-06-03T00:14:05.050Z,100
2016-06-03T00:14:15.050Z,100
2016-06-03T00:14:25.050Z,100
2016-06-03T00:14:35.034Z,100
2016-06-03T00:14:45.037Z,100
2016-06-03T00:14:55.022Z,100
2016-06-03T00:15:05.022Z,100
2016-06-03T00:15:15.022Z,100
2016-06-03T00:15:25.022Z,100
2016-06-03T00:15:35.006Z,100
2016-06-03T00:15:45.008Z,100
2016-06-03T00:15:55.008Z,100
2016-06-03T00:16:04.993Z,100
2016-06-03T00:16:14.836Z,100
2016-06-03T00:16:24.993Z,100
2016-06-03T00:16:34.993Z,100
2016-06-03T00:16:44.980Z,100
2016-06-03T00:16:54.964Z,100
2016-06-03T00:17:04.964Z,100
2016-06-03T00:17:14.964Z,100
2016-06-03T00:17:24.949Z,100
2016-06-03T00:17:34.949Z,100
2016-06-03T00:17:44.952Z,100
2016-06-03T00:17:54.936Z,100
2016-06-03T00:18:04.952Z,100
2016-06-03T00:18:14.936Z,100
2016-06-03T00:18:24.920Z,100
2016-06-03T00:18:34.920Z,100
2016-06-03T00:18:44.923Z,100
2016-06-03T00:18:54.908Z,100
2016-06-03T00:19:04.908Z,100
2016-06-03T00:19:14.908Z,100
2016-06-03T00:19:24.892Z,100
2016-06-03T00:19:34.892Z,100
2016-06-03T00:19:44.895Z,100
2016-06-03T00:19:54.895Z,100
2016-06-03T00:20:04.895Z,100
2016-06-03T00:20:14.880Z,100
2016-06-03T00:20:24.880Z,100
2016-06-03T00:20:34.864Z,100
2016-06-03T00:20:44.865Z,100
2016-06-03T00:20:54.849Z,100
2016-06-03T00:21:04.849Z,100
2016-06-03T00:21:14.849Z,100
2016-06-03T00:21:24.849Z,100
2016-06-03T00:21:34.834Z,100
2016-06-03T00:21:44.838Z,100
2016-06-03T00:21:54.838Z,100
2016-06-03T00:22:04.822Z,100
2016-06-03T00:22:14.822Z,100
2016-06-03T00:22:24.822Z,100
2016-06-03T00:22:34.806Z,100
2016-06-03T00:22:44.808Z,100
2016-06-03T00:22:54.808Z,100
2016-06-03T00:23:04.793Z,100
2016-06-03T00:23:14.793Z,100
2016-06-03T00:23:24.793Z,100
2016-06-03T00:23:34.793Z,100
2016-06-03T00:23:44.780Z,100
2016-06-03T00:23:54.796Z,100
2016-06-03T00:24:04.765Z,100
2016-06-03T00:24:14.765Z,100
2016-06-03T00:24:24.749Z,100
2016-06-03T00:24:34.608Z,100
2016-06-03T00:24:44.610Z,100
2016-06-03T00:24:54.751Z,100
2016-06-03T00:25:04.767Z,100
2016-06-03T00:25:14.735Z,100
2016-06-03T00:25:24.751Z,100
2016-06-03T00:25:35.048Z,100
2016-06-03T00:25:44.738Z,100
2016-06-03T00:25:54.707Z,100
2016-06-03T00:26:04.707Z,100
2016-06-03T00:26:14.707Z,100
2016-06-03T00:26:24.707Z,100
2016-06-03T00:26:34.691Z,100
2016-06-03T00:26:44.694Z,100
2016-06-03T00:26:54.694Z,100
2016-06-03T00:27:04.679Z,100
2016-06-03T00:27:14.679Z,100
2016-06-03T00:27:24.679Z,100
2016-06-03T00:27:34.663Z,100
2016-06-03T00:27:44.665Z,100
2016-06-03T00:27:54.665Z,100
2016-06-03T00:28:04.650Z,100
2016-06-03T00:28:14.650Z,100
2016-06-03T00:28:24.650Z,100
2016-06-03T00:28:34.634Z,100
2016-06-03T00:28:44.638Z,100
2016-06-03T00:28:54.638Z,100
2016-06-03T00:29:04.638Z,100
2016-06-03T00:29:14.622Z,100
2016-06-03T00:29:24.622Z,100
2016-06-03T00:29:34.622Z,100
2016-06-03T00:29:44.609Z,100
2016-06-03T00:29:54.609Z,100
2016-06-03T00:30:04.609Z,100
2016-06-03T00:30:14.593Z,100
2016-06-03T00:30:24.593Z,100
2016-06-03T00:30:34.577Z,100
2016-06-03T00:30:44.579Z,100
2016-06-03T00:30:54.579Z,100
2016-06-03T00:31:06.173Z,100
2016-06-03T00:31:14.564Z,100
2016-06-03T00:31:24.564Z,100
2016-06-03T00:31:34.548Z,100
2016-06-03T00:31:44.552Z,100
2016-06-03T00:31:54.552Z,100
2016-06-03T00:32:04.537Z,100
2016-06-03T00:32:14.537Z,100
2016-06-03T00:32:24.537Z,100
2016-06-03T00:32:34.521Z,100
2016-06-03T00:32:44.523Z,100
2016-06-03T00:32:54.523Z,100
2016-06-03T00:33:04.507Z,100
2016-06-03T00:33:14.523Z,100
2016-06-03T00:33:24.507Z,100
2016-06-03T00:33:34.507Z,100
2016-06-03T00:33:44.510Z,100
2016-06-03T00:33:54.495Z,100
2016-06-03T00:34:04.479Z,100
2016-06-03T00:34:14.479Z,100
2016-06-03T00:34:24.479Z,100
2016-06-03T00:34:34.463Z,100
2016-06-03T00:34:44.465Z,100
2016-06-03T00:34:54.465Z,100
2016-06-03T00:35:04.450Z,100
2016-06-03T00:35:14.450Z,100
2016-06-03T00:35:24.450Z,100
2016-06-03T00:35:34.434Z,100
2016-06-03T00:35:44.437Z,100
2016-06-03T00:35:54.437Z,100
2016-06-03T00:36:04.437Z,100
2016-06-03T00:36:14.422Z,100
2016-06-03T00:36:24.422Z,100
2016-06-03T00:36:34.422Z,100
2016-06-03T00:36:44.409Z,100
2016-06-03T00:36:54.409Z,100
2016-06-03T00:37:04.409Z,100
2016-06-03T00:37:14.393Z,100
2016-06-03T00:37:24.393Z,100
2016-06-03T00:37:34.393Z,100
2016-06-03T00:37:44.380Z,100
2016-06-03T00:37:54.380Z,100
2016-06-03T00:38:04.380Z,100
2016-06-03T00:38:14.364Z,100
2016-06-03T00:38:24.208Z,100
2016-06-03T00:38:34.348Z,100
2016-06-03T00:38:44.351Z,100
2016-06-03T00:38:54.351Z,100
2016-06-03T00:39:04.351Z,100
2016-06-03T00:39:14.336Z,100
2016-06-03T00:39:24.336Z,100
2016-06-03T00:39:34.461Z,100
2016-06-03T00:39:44.323Z,100
2016-06-03T00:39:54.901Z,100
2016-06-03T00:40:04.964Z,100
2016-06-03T00:40:14.183Z,100
2016-06-03T00:40:24.979Z,100
2016-06-03T00:40:34.308Z,100
2016-06-03T00:40:44.295Z,100
2016-06-03T00:40:54.295Z,100
2016-06-03T00:41:04.295Z,100
2016-06-03T00:41:14.279Z,100
2016-06-03T00:41:24.279Z,100
2016-06-03T00:41:34.123Z,100
2016-06-03T00:41:44.282Z,100
2016-06-03T00:41:54.267Z,100
2016-06-03T00:42:04.251Z,100
2016-06-03T00:42:14.251Z,100
2016-06-03T00:42:24.251Z,100
2016-06-03T00:42:34.235Z,100
2016-06-03T00:42:44.237Z,100
2016-06-03T00:42:54.237Z,100
2016-06-03T00:43:04.237Z,100
2016-06-03T00:43:14.222Z,100
2016-06-03T00:43:24.222Z,100
2016-06-03T00:43:34.222Z,100
2016-06-03T00:43:44.208Z,100
2016-06-03T00:43:54.208Z,100
2016-06-03T00:44:04.193Z,100
2016-06-03T00:44:14.193Z,100
2016-06-03T00:44:24.193Z,100
2016-06-03T00:44:34.177Z,100
2016-06-03T00:44:44.180Z,100
2016-06-03T00:44:54.180Z,100
2016-06-03T00:45:04.164Z,100
2016-06-03T00:45:14.164Z,100
2016-06-03T00:45:24.164Z,100
2016-06-03T00:45:34.149Z,100
2016-06-03T00:45:44.152Z,100
2016-06-03T00:45:54.152Z,100
2016-06-03T00:46:04.152Z,100
2016-06-03T00:46:14.136Z,100
2016-06-03T00:46:24.136Z,100
2016-06-03T00:46:34.136Z,100
2016-06-03T00:46:44.122Z,100
2016-06-03T00:46:54.122Z,100
2016-06-03T00:47:04.122Z,100
2016-06-03T00:47:14.122Z,100
2016-06-03T00:47:24.107Z,100
2016-06-03T00:47:34.107Z,100
2016-06-03T00:47:44.095Z,100
2016-06-03T00:47:54.095Z,100
2016-06-03T00:48:04.095Z,100
2016-06-03T00:48:14.080Z,100
2016-06-03T00:48:24.080Z,100
2016-06-03T00:48:34.080Z,100
2016-06-03T00:48:44.064Z,100
2016-06-03T00:48:54.066Z,100
2016-06-03T00:49:04.066Z,100
2016-06-03T00:49:13.894Z,100
2016-06-03T00:49:24.050Z,100
2016-06-03T00:49:34.050Z,100
2016-06-03T00:49:44.035Z,100
2016-06-03T00:49:54.038Z,100
2016-06-03T00:50:04.038Z,100
2016-06-03T00:50:14.022Z,100
2016-06-03T00:50:24.022Z,100
2016-06-03T00:50:34.022Z,100
2016-06-03T00:50:44.006Z,100
2016-06-03T00:50:54.008Z,100
2016-06-03T00:51:04.008Z,100
2016-06-03T00:51:13.993Z,100
2016-06-03T00:51:23.993Z,100
2016-06-03T00:51:33.977Z,100
2016-06-03T00:51:43.977Z,100
2016-06-03T00:51:53.980Z,100
2016-06-03T00:52:03.980Z,100
2016-06-03T00:52:13.965Z,100
2016-06-03T00:52:23.965Z,100
2016-06-03T00:52:33.949Z,100
2016-06-03T00:52:43.949Z,100
2016-06-03T00:52:53.968Z,100
2016-06-03T00:53:03.952Z,100
2016-06-03T00:53:13.936Z,100
2016-06-03T00:53:23.936Z,100
2016-06-03T00:53:33.921Z,100
2016-06-03T00:53:43.921Z,100
2016-06-03T00:53:53.923Z,100
2016-06-03T00:54:03.923Z,100
2016-06-03T00:54:13.907Z,100
2016-06-03T00:54:23.907Z,100
2016-06-03T00:54:33.907Z,100
2016-06-03T00:54:44.298Z,100
2016-06-03T00:54:53.894Z,100
2016-06-03T00:55:03.894Z,100
2016-06-03T00:55:13.738Z,100
2016-06-03T00:55:24.519Z,100
2016-06-03T00:55:33.879Z,100
2016-06-03T00:55:43.910Z,100
2016-06-03T00:55:53.710Z,100
2016-06-03T00:56:03.866Z,100
2016-06-03T00:56:13.851Z,100
2016-06-03T00:56:23.851Z,100
2016-06-03T00:56:33.851Z,100
2016-06-03T00:56:43.835Z,100
2016-06-03T00:56:53.838Z,100
2016-06-03T00:57:03.838Z,100
2016-06-03T00:57:13.822Z,100
2016-06-03T00:57:23.822Z,100
2016-06-03T00:57:33.838Z,100
2016-06-03T00:57:43.807Z,100
2016-06-03T00:57:53.810Z,100
2016-06-03T00:58:03.825Z,100
2016-06-03T00:58:13.810Z,100
2016-06-03T00:58:23.794Z,100
2016-06-03T00:58:33.778Z,100
2016-06-03T00:58:43.778Z,100
2016-06-03T00:58:53.780Z,100
2016-06-03T00:59:03.780Z,100
2016-06-03T00:59:13.765Z,100
2016-06-03T00:59:23.765Z,100
2016-06-03T00:59:33.749Z,100
2016-06-03T00:59:43.749Z,100
2016-06-03T00:59:53.751Z,100
2016-06-03T01:00:03.595Z,100
2016-06-03T01:00:13.736Z,100
2016-06-03T01:00:23.736Z,100
2016-06-03T01:00:33.736Z,100
2016-06-03T01:00:43.579Z,100
2016-06-03T01:00:53.723Z,100
2016-06-03T01:01:03.723Z,100
2016-06-03T01:01:13.723Z,100
2016-06-03T01:01:23.707Z,100
2016-06-03T01:01:33.707Z,100
2016-06-03T01:01:43.692Z,100
2016-06-03T01:01:53.695Z,100
2016-06-03T01:02:03.695Z,100
2016-06-03T01:02:13.695Z,100
2016-06-03T01:02:23.695Z,100
2016-06-03T01:02:33.679Z,100
2016-06-03T01:02:43.695Z,100
2016-06-03T01:02:53.666Z,100
2016-06-03T01:03:03.666Z,100
2016-06-03T01:03:13.682Z,100
2016-06-03T01:03:23.651Z,100
2016-06-03T01:03:33.651Z,100
2016-06-03T01:03:43.651Z,100
2016-06-03T01:03:53.637Z,100
2016-06-03T01:04:03.637Z,100
2016-06-03T01:04:13.637Z,100
2016-06-03T01:04:23.622Z,100
2016-06-03T01:04:33.622Z,100
2016-06-03T01:04:43.637Z,100
2016-06-03T01:04:53.609Z,100
2016-06-03T01:05:03.609Z,100
2016-06-03T01:05:13.609Z,100
2016-06-03T01:05:23.593Z,100
2016-06-03T01:05:33.593Z,100
2016-06-03T01:05:43.578Z,100
2016-06-03T01:05:53.581Z,100
2016-06-03T01:06:03.581Z,100
2016-06-03T01:06:13.596Z,100
2016-06-03T01:06:23.581Z,100
2016-06-03T01:06:33.565Z,100
2016-06-03T01:06:43.549Z,100
2016-06-03T01:06:53.552Z,100
2016-06-03T01:07:03.552Z,100
2016-06-03T01:07:13.537Z,100
2016-06-03T01:07:23.537Z,100
2016-06-03T01:07:33.537Z,100
2016-06-03T01:07:43.521Z,100
2016-06-03T01:07:53.524Z,100
2016-06-03T01:08:03.524Z,100
2016-06-03T01:08:13.509Z,100
2016-06-03T01:08:23.509Z,100
2016-06-03T01:08:33.524Z,100
2016-06-03T01:08:43.509Z,100
2016-06-03T01:08:53.495Z,100
2016-06-03T01:09:03.495Z,100
2016-06-03T01:09:13.479Z,100
2016-06-03T01:09:23.479Z,100
2016-06-03T01:09:33.323Z,100
2016-06-03T01:09:43.479Z,100
2016-06-03T01:09:53.467Z,100
2016-06-03T01:10:03.810Z,100
2016-06-03T01:10:14.014Z,100
2016-06-03T01:10:23.451Z,100
2016-06-03T01:10:34.248Z,100
2016-06-03T01:10:43.451Z,100
2016-06-03T01:10:53.578Z,100
2016-06-03T01:11:03.437Z,100
2016-06-03T01:11:13.437Z,100
2016-06-03T01:11:23.422Z,100
2016-06-03T01:11:33.422Z,100
2016-06-03T01:11:43.406Z,100
2016-06-03T01:11:53.409Z,100
2016-06-03T01:12:03.409Z,100
2016-06-03T01:12:13.409Z,100
2016-06-03T01:12:23.394Z,100
2016-06-03T01:12:33.394Z,100
2016-06-03T01:12:43.394Z,100
2016-06-03T01:12:53.380Z,100
2016-06-03T01:13:03.380Z,100
2016-06-03T01:13:13.380Z,100
2016-06-03T01:13:23.364Z,100
2016-06-03T01:13:33.364Z,100
2016-06-03T01:13:43.380Z,100
2016-06-03T01:13:53.367Z,100
2016-06-03T01:14:03.352Z,100
2016-06-03T01:14:13.352Z,100
2016-06-03T01:14:23.352Z,100
2016-06-03T01:14:33.352Z,100
2016-06-03T01:14:43.336Z,100
2016-06-03T01:14:53.339Z,100
2016-06-03T01:15:03.323Z,100
2016-06-03T01:15:13.323Z,100
2016-06-03T01:15:23.308Z,100
2016-06-03T01:15:33.308Z,100
2016-06-03T01:15:43.308Z,100
2016-06-03T01:15:53.295Z,100
2016-06-03T01:16:03.295Z,99.9
2016-06-03T01:16:13.295Z,99.7
2016-06-03T01:16:23.280Z,99.8
2016-06-03T01:16:33.280Z,99.7
2016-06-03T01:16:43.280Z,99.9
2016-06-03T01:16:53.266Z,99.8
2016-06-03T01:17:03.266Z,99.8
2016-06-03T01:17:13.266Z,100
2016-06-03T01:17:23.250Z,99.4
2016-06-03T01:17:33.250Z,99.4
2016-06-03T01:17:43.235Z,99.7
2016-06-03T01:17:53.238Z,99.5
2016-06-03T01:18:03.238Z,99.3
2016-06-03T01:18:13.238Z,99.6
2016-06-03T01:18:23.222Z,99.3
2016-06-03T01:18:33.222Z,99.9
2016-06-03T01:18:43.066Z,99.2
2016-06-03T01:18:53.209Z,99.4
2016-06-03T01:19:03.209Z,99.2
2016-06-03T01:19:13.209Z,99.2
2016-06-03T01:19:23.194Z,99.3
2016-06-03T01:19:33.194Z,99.2
2016-06-03T01:19:43.194Z,99.4
2016-06-03T01:19:53.180Z,99
2016-06-03T01:20:03.180Z,99.4
2016-06-03T01:20:13.180Z,99
2016-06-03T01:20:23.165Z,99
2016-06-03T01:20:33.165Z,99
2016-06-03T01:20:43.165Z,99
2016-06-03T01:20:53.168Z,99.2
2016-06-03T01:21:03.152Z,99.2
2016-06-03T01:21:13.152Z,99
2016-06-03T01:21:23.152Z,99.2
2016-06-03T01:21:33.136Z,99.2
2016-06-03T01:21:43.136Z,99.2
2016-06-03T01:21:53.139Z,99.1
2016-06-03T01:22:03.124Z,99
2016-06-03T01:22:13.124Z,99.2
2016-06-03T01:22:23.108Z,99.2
2016-06-03T01:22:33.108Z,98.9
2016-06-03T01:22:43.092Z,98.9
2016-06-03T01:22:53.095Z,98.9
2016-06-03T01:23:03.095Z,98.4
2016-06-03T01:23:13.095Z,98.6
2016-06-03T01:23:23.095Z,98.3
2016-06-03T01:23:33.080Z,98.6
2016-06-03T01:23:43.080Z,98.3
2016-06-03T01:23:53.082Z,98.4
2016-06-03T01:24:03.066Z,98.4
2016-06-03T01:24:13.051Z,98.3
2016-06-03T01:24:23.051Z,98.6
2016-06-03T01:24:33.066Z,98.6
2016-06-03T01:24:43.504Z,98.6
2016-06-03T01:24:53.038Z,98.7
2016-06-03T01:25:03.585Z,98.5
2016-06-03T01:25:13.772Z,98
2016-06-03T01:25:23.022Z,98
2016-06-03T01:25:33.022Z,98.2
2016-06-03T01:25:43.772Z,98
2016-06-03T01:25:53.025Z,98
2016-06-03T01:26:03.010Z,98.3
2016-06-03T01:26:13.025Z,98.1
2016-06-03T01:26:22.994Z,98.1
2016-06-03T01:26:32.994Z,98.1
2016-06-03T01:26:42.994Z,98.3
2016-06-03T01:26:52.996Z,97.9
2016-06-03T01:27:02.980Z,98
2016-06-03T01:27:12.965Z,98
2016-06-03T01:27:22.965Z,98.3
2016-06-03T01:27:32.965Z,97.6
2016-06-03T01:27:42.949Z,98.2
2016-06-03T01:27:52.952Z,97.7
2016-06-03T01:28:02.952Z,97.9
2016-06-03T01:28:12.952Z,97.5
2016-06-03T01:28:22.796Z,97.8
2016-06-03T01:28:32.937Z,97.8
2016-06-03T01:28:42.937Z,97.6
2016-06-03T01:28:52.939Z,97.8
2016-06-03T01:29:02.923Z,97.7
2016-06-03T01:29:12.923Z,97.9
2016-06-03T01:29:22.907Z,97.8
2016-06-03T01:29:32.923Z,97.8
2016-06-03T01:29:42.907Z,97.8
2016-06-03T01:29:52.895Z,97.8
2016-06-03T01:30:02.910Z,97.8
2016-06-03T01:30:12.895Z,98
2016-06-03T01:30:22.879Z,97.4
2016-06-03T01:30:32.879Z,97.3
2016-06-03T01:30:42.879Z,97.6
2016-06-03T01:30:52.882Z,97.5
2016-06-03T01:31:02.866Z,97.2
2016-06-03T01:31:12.866Z,97.3
2016-06-03T01:31:22.866Z,97.2
2016-06-03T01:31:32.866Z,97.2
2016-06-03T01:31:42.695Z,97.2
2016-06-03T01:31:52.854Z,97.2
2016-06-03T01:32:02.838Z,97.2
2016-06-03T01:32:12.838Z,96.9
2016-06-03T01:32:22.838Z,96.7
2016-06-03T01:32:32.823Z,96.7
2016-06-03T01:32:42.823Z,96.6
2016-06-03T01:32:52.825Z,96.9
2016-06-03T01:33:02.809Z,96.9
2016-06-03T01:33:12.809Z,97
2016-06-03T01:33:22.793Z,96.9
2016-06-03T01:33:32.793Z,96.9
2016-06-03T01:33:42.793Z,97
2016-06-03T01:33:52.796Z,97.2
2016-06-03T01:34:02.781Z,97.1
2016-06-03T01:34:12.781Z,97.2
2016-06-03T01:34:22.765Z,97.2
2016-06-03T01:34:32.765Z,97.2
2016-06-03T01:34:42.765Z,96.8
2016-06-03T01:34:52.752Z,97.2
2016-06-03T01:35:02.752Z,97
2016-06-03T01:35:12.752Z,97
2016-06-03T01:35:22.737Z,96.9
2016-06-03T01:35:32.737Z,97.2
2016-06-03T01:35:42.737Z,97.1
2016-06-03T01:35:52.723Z,97
2016-06-03T01:36:02.723Z,97.1
2016-06-03T01:36:12.723Z,97.3
2016-06-03T01:36:22.723Z,97.3
2016-06-03T01:36:32.708Z,97.1
2016-06-03T01:36:42.708Z,97.1
2016-06-03T01:36:52.711Z,97.2
2016-06-03T01:37:02.695Z,97.5
2016-06-03T01:37:12.695Z,96.9
2016-06-03T01:37:22.679Z,97.5
2016-06-03T01:37:32.695Z,97.4
2016-06-03T01:37:42.679Z,96.9
2016-06-03T01:37:52.542Z,96.9
2016-06-03T01:38:02.667Z,97
2016-06-03T01:38:12.667Z,96.9
2016-06-03T01:38:22.651Z,97.1
2016-06-03T01:38:32.667Z,96.6
2016-06-03T01:38:42.651Z,96.4
2016-06-03T01:38:52.653Z,96.7
2016-06-03T01:39:02.637Z,96.4
2016-06-03T01:39:12.637Z,96.6
2016-06-03T01:39:22.622Z,96.6
2016-06-03T01:39:32.622Z,96.3
2016-06-03T01:39:42.622Z,96.6
2016-06-03T01:39:52.657Z,96.8
2016-06-03T01:40:03.235Z,96.6
2016-06-03T01:40:12.641Z,96.7
2016-06-03T01:40:22.954Z,96.8
2016-06-03T01:40:32.766Z,96.7
2016-06-03T01:40:42.595Z,96.8
2016-06-03T01:40:52.597Z,96.8
2016-06-03T01:41:02.581Z,96.8
2016-06-03T01:41:12.581Z,96.8
2016-06-03T01:41:22.581Z,96.6
2016-06-03T01:41:32.565Z,96.9
2016-06-03T01:41:42.565Z,96.9
2016-06-03T01:41:52.567Z,96.5
2016-06-03T01:42:02.552Z,96.9
2016-06-03T01:42:12.552Z,96.3
2016-06-03T01:42:22.552Z,96.6
2016-06-03T01:42:32.536Z,96.1
2016-06-03T01:42:42.536Z,96.3
2016-06-03T01:42:52.539Z,96.3
2016-06-03T01:43:02.523Z,96.3
2016-06-03T01:43:12.523Z,96.4
2016-06-03T01:43:22.523Z,96.3
2016-06-03T01:43:32.508Z,96.3
2016-06-03T01:43:42.508Z,96.5
2016-06-03T01:43:52.526Z,96.3
2016-06-03T01:44:02.495Z,96.3
2016-06-03T01:44:12.495Z,96.4
2016-06-03T01:44:22.495Z,96.5
2016-06-03T01:44:32.480Z,96.4
2016-06-03T01:44:42.480Z,96.4
2016-06-03T01:44:52.483Z,96.1
2016-06-03T01:45:02.467Z,96.2
2016-06-03T01:45:12.467Z,96.5
2016-06-03T01:45:22.467Z,96.5
2016-06-03T01:45:32.451Z,96.5
2016-06-03T01:45:42.451Z,96.4
2016-06-03T01:45:52.453Z,96.5
2016-06-03T01:46:02.438Z,96.3
2016-06-03T01:46:12.438Z,96.3
2016-06-03T01:46:22.438Z,96.1
2016-06-03T01:46:32.422Z,96.6
2016-06-03T01:46:42.438Z,96.5
2016-06-03T01:46:52.425Z,96.1
2016-06-03T01:47:02.425Z,96.1
2016-06-03T01:47:12.425Z,96
2016-06-03T01:47:22.409Z,96.1
2016-06-03T01:47:32.394Z,95.8
2016-06-03T01:47:42.409Z,95.8
2016-06-03T01:47:52.397Z,96.1
2016-06-03T01:48:02.381Z,95.7
2016-06-03T01:48:12.381Z,96
2016-06-03T01:48:22.381Z,96
2016-06-03T01:48:32.366Z,96
2016-06-03T01:48:42.366Z,95.9
2016-06-03T01:48:52.383Z,95.7
2016-06-03T01:49:02.352Z,95.8
2016-06-03T01:49:12.352Z,95.8
2016-06-03T01:49:22.352Z,95.6
2016-06-03T01:49:32.336Z,95.9
2016-06-03T01:49:42.336Z,95.9
2016-06-03T01:49:52.339Z,95.6
2016-06-03T01:50:02.339Z,96.1
2016-06-03T01:50:12.324Z,96
2016-06-03T01:50:22.324Z,95.6
2016-06-03T01:50:32.324Z,96.2
2016-06-03T01:50:42.308Z,95.6
2016-06-03T01:50:52.311Z,95.4
2016-06-03T01:51:02.311Z,95.5
2016-06-03T01:51:12.295Z,95.9
2016-06-03T01:51:22.295Z,96.2
2016-06-03T01:51:32.311Z,95.6
2016-06-03T01:51:42.280Z,95.6
2016-06-03T01:51:52.127Z,95.4
2016-06-03T01:52:02.283Z,95.4
2016-06-03T01:52:12.267Z,95.4
2016-06-03T01:52:22.267Z,95.4
2016-06-03T01:52:32.252Z,95.6
2016-06-03T01:52:42.267Z,95.6
2016-06-03T01:52:52.255Z,95.6
2016-06-03T01:53:02.255Z,95.4
2016-06-03T01:53:12.239Z,95.5
2016-06-03T01:53:22.239Z,95.7
2016-06-03T01:53:32.223Z,95.6
2016-06-03T01:53:42.223Z,95.6
2016-06-03T01:53:52.224Z,95.7
2016-06-03T01:54:02.209Z,95.9
2016-06-03T01:54:12.209Z,95.7
2016-06-03T01:54:22.209Z,95.6
2016-06-03T01:54:32.193Z,95.7
2016-06-03T01:54:42.240Z,95.9
2016-06-03T01:54:52.196Z,95.8
2016-06-03T01:55:02.196Z,95.8
2016-06-03T01:55:12.180Z,95.9
2016-06-03T01:55:22.180Z,95.8
2016-06-03T01:55:32.180Z,95.9
2016-06-03T01:55:42.180Z,95.9
2016-06-03T01:55:52.183Z,95.4
2016-06-03T01:56:02.152Z,95.4
2016-06-03T01:56:12.152Z,96
2016-06-03T01:56:22.152Z,95.5
2016-06-03T01:56:32.152Z,95.8
2016-06-03T01:56:42.137Z,95.9
2016-06-03T01:56:52.140Z,95.5
2016-06-03T01:57:02.140Z,95.6
2016-06-03T01:57:12.124Z,95.8
2016-06-03T01:57:22.124Z,95.7
2016-06-03T01:57:32.124Z,95.8
2016-06-03T01:57:42.108Z,95.7
2016-06-03T01:57:52.110Z,96
2016-06-03T01:58:02.110Z,95.9
2016-06-03T01:58:12.095Z,95.8
2016-06-03T01:58:22.095Z,96
2016-06-03T01:58:32.095Z,95.8
2016-06-03T01:58:42.079Z,95.8
2016-06-03T01:58:52.082Z,95.8
2016-06-03T01:59:02.082Z,95.8
2016-06-03T01:59:12.082Z,95.8
2016-06-03T01:59:22.066Z,95.7
2016-06-03T01:59:32.051Z,95.9
2016-06-03T01:59:42.051Z,95.9
2016-06-03T01:59:52.054Z,95.6
2016-06-03T02:00:02.054Z,95.7
2016-06-03T02:00:12.038Z,95.7
2016-06-03T02:00:22.038Z,95.4
2016-06-03T02:00:32.038Z,95.4
2016-06-03T02:00:42.023Z,95.6
2016-06-03T02:00:52.026Z,95.4
2016-06-03T02:01:02.026Z,95.6
2016-06-03T02:01:12.026Z,95.4
2016-06-03T02:01:22.010Z,95.7
2016-06-03T02:01:32.026Z,95.8
2016-06-03T02:01:41.994Z,95.5
2016-06-03T02:01:51.996Z,95.7
2016-06-03T02:02:01.996Z,95.8
2016-06-03T02:02:11.981Z,95.6
2016-06-03T02:02:21.981Z,95.5
2016-06-03T02:02:31.981Z,95.6
2016-06-03T02:02:41.965Z,95.5
2016-06-03T02:02:51.969Z,95.6
2016-06-03T02:03:01.969Z,95.6
2016-06-03T02:03:11.953Z,95.4
2016-06-03T02:03:21.969Z,95.6
2016-06-03T02:03:31.953Z,95.6
2016-06-03T02:03:41.953Z,95.4
2016-06-03T02:03:51.940Z,95.8
2016-06-03T02:04:01.784Z,95.8
2016-06-03T02:04:11.940Z,95.8
2016-06-03T02:04:21.924Z,95.7
2016-06-03T02:04:31.924Z,95.8
2016-06-03T02:04:41.909Z,95.8
2016-06-03T02:04:51.911Z,95.8
2016-06-03T02:05:01.911Z,95.8
2016-06-03T02:05:11.895Z,95.7
2016-06-03T02:05:21.895Z,95.7
2016-06-03T02:05:31.895Z,95.7
2016-06-03T02:05:41.739Z,95.7
2016-06-03T02:05:51.882Z,95.6
2016-06-03T02:06:01.882Z,95.8
2016-06-03T02:06:11.867Z,95.6
2016-06-03T02:06:21.882Z,95.8
2016-06-03T02:06:31.867Z,95.8
2016-06-03T02:06:41.867Z,95.7
2016-06-03T02:06:51.854Z,95.7
2016-06-03T02:07:01.854Z,95.6
2016-06-03T02:07:11.854Z,95.6
2016-06-03T02:07:21.838Z,95.7
2016-06-03T02:07:31.838Z,95.6
2016-06-03T02:07:41.823Z,95.8
2016-06-03T02:07:51.825Z,95.8
2016-06-03T02:08:01.825Z,95.9
2016-06-03T02:08:11.825Z,95.7
2016-06-03T02:08:21.809Z,95.8
2016-06-03T02:08:31.653Z,95.8
2016-06-03T02:08:41.794Z,95.7
2016-06-03T02:08:51.798Z,96
2016-06-03T02:09:01.798Z,95.8
2016-06-03T02:09:11.798Z,95.8
2016-06-03T02:09:21.782Z,96.1
2016-06-03T02:09:31.782Z,95.8
2016-06-03T02:09:41.782Z,95.8
2016-06-03T02:09:51.768Z,95.8
2016-06-03T02:10:01.768Z,95.8
2016-06-03T02:10:12.346Z,96.1
2016-06-03T02:10:22.065Z,96.1
2016-06-03T02:10:32.378Z,95.6
2016-06-03T02:10:42.581Z,95.6
2016-06-03T02:10:52.912Z,95.7
2016-06-03T02:11:01.740Z,95.7
2016-06-03T02:11:11.724Z,96.1
2016-06-03T02:11:21.724Z,95.9
2016-06-03T02:11:31.724Z,95.7
2016-06-03T02:11:41.724Z,95.9
2016-06-03T02:11:51.711Z,95.9
2016-06-03T02:12:01.711Z,95.9
2016-06-03T02:12:11.695Z,96
2016-06-03T02:12:21.695Z,95.6
2016-06-03T02:12:31.695Z,95.4
2016-06-03T02:12:41.695Z,95.7
2016-06-03T02:12:51.542Z,95.6
2016-06-03T02:13:01.698Z,95.7
2016-06-03T02:13:11.683Z,96
2016-06-03T02:13:21.667Z,95.7
2016-06-03T02:13:31.667Z,95.4
2016-06-03T02:13:41.667Z,95.9
2016-06-03T02:13:51.654Z,95.8
2016-06-03T02:14:01.654Z,95.5
2016-06-03T02:14:11.639Z,95.8
2016-06-03T02:14:21.639Z,96
2016-06-03T02:14:31.639Z,95.7
2016-06-03T02:14:41.623Z,95.9
2016-06-03T02:14:51.626Z,95.9
2016-06-03T02:15:01.626Z,95.7
2016-06-03T02:15:11.610Z,96
2016-06-03T02:15:21.610Z,95.9
2016-06-03T02:15:31.610Z,95.7
2016-06-03T02:15:41.595Z,95.9
2016-06-03T02:15:51.597Z,96.1